Amargosa Valley, Nevada Weather observations

Data are for observation ending at time listed.
 Day   Time    Ave.   Ave.  Ave.  Vector   Max.   Stn.    Total    Solar   Ave.  
  of    of     Air    Rel.  Wind   Wind    Wind   Baro.  Precip.   Rad.    Soil  
Year   Day     Temp.  Hum.  Speed  Dir.    Gust   Pres.                    Temp. 
2014   (PST)    F      %     mph   deg.    mph     mb.     in.     W/m2     F   
------------------------------------------------------------------------------
 330    7:00   36.2    30    1.2    17      4.5   940.8    0.00      41    55.3
 330    7:10   37.8    29    2.9    26      4.9   941.0    0.00      68    55.3
 330    7:20   39.3    28    1.8    27      4.2   941.1    0.00     100    55.2
 330    7:30   41.2    27    0.5    11      1.5   941.3    0.00     135    55.1
 330    7:40   42.3    27    1.0    16      3.1   941.5    0.00     164    55.0
 330    7:50   44.4    25    2.0    27      4.4   941.6    0.00     193    54.9
 330    8:00   46.9    24    2.3    28      4.4   941.7    0.00     222    54.9
 330    8:10   48.4    23    1.2    14      3.1   941.8    0.00     246    54.8
 330    8:20   50.6    25    0.8   351      2.2   941.9    0.00     158    54.7
 330    8:30   51.8    24    1.2   323      2.7   941.9    0.00     109    54.7
 330    8:40   53.2    22    1.2   324      2.9   942.0    0.00     326    54.7
 330    8:50   53.1    20    1.8    26      5.3   942.3    0.00     355    54.6
 330    9:00   54.4    19    1.2    23      3.3   942.4    0.00     378    54.6
 330    9:10   55.5    18    1.3    30      3.1   942.5    0.00     404    54.6
 330    9:20   56.7    18    1.0    24      3.1   942.5    0.00     424    54.5
 330    9:30   58.0    18    0.8    33      2.4   942.6    0.00     449    54.5
 330    9:40   59.8    17    0.4   291      2.3   942.6    0.00     467    54.5
 330    9:50   59.9    17    0.6   346      3.0   942.7    0.00     484    54.5
 330   10:00   59.8    18    1.4   264      2.7   942.6    0.00     499    54.5
 330   10:10   59.7    19    1.5   262      3.5   942.6    0.00     513    54.6
 330   10:20   60.7    18    0.8   302      2.4   942.5    0.00     527    54.6
 330   10:30   60.7    18    1.6   235      3.4   942.5    0.00     539    54.7
 330   10:40   61.1    18    0.7   231      2.9   942.2    0.00     548    54.8
 330   10:50   62.7    17    0.4   237      1.8   942.0    0.00     557    54.9
 330   11:00   63.8    17    0.6   205      2.6   941.7    0.00     563    55.0
 330   11:10   64.6    16    1.3   204      3.7   941.5    0.00     569    55.1
 330   11:20   64.8    15    2.6   128      7.4   941.5    0.00     577    55.2
 330   11:30   64.8    14    2.7   132      6.0   941.2    0.00     579    55.3
 330   11:40   65.4    14    1.6   112      4.5   941.1    0.00     581    55.5
 330   11:50   65.8    14    2.3   140      4.7   940.9    0.00     577    55.7
 330   12:00   66.4    14    1.4   138      5.5   940.7    0.00     576    55.8
 330   12:10   67.3    13    1.6    90      3.9   940.5    0.00     573    56.0
 330   12:20   67.3    13    1.5   110      3.5   940.3    0.00     566    56.2
 330   12:30   67.8    14    2.7   160      5.5   940.2    0.00     554    56.4
 330   12:40   67.6    13    3.7   182      6.6   940.1    0.00     545    56.6
 330   12:50   68.0    13    3.0   187      6.4   939.9    0.00     534    56.8
 330   13:00   68.7    13    2.7   132      6.5   939.8    0.00     524    57.0
 330   13:10   69.7    13    2.8   143      4.9   939.7    0.00     508    57.3
 330   13:20   69.9    13    2.7   165      4.7   939.6    0.00     492    57.5
 330   13:30   70.6    12    2.2   145      4.5   939.4    0.00     476    57.8
 330   13:40   71.1    12    2.4   176      4.6   939.4    0.00     456    58.0
 330   13:50   70.8    12    2.7   154      5.6   939.3    0.00     437    58.3
 330   14:00   71.5    12    2.0   155      4.6   939.2    0.00     415    58.5
 330   14:10   72.3    13    2.4   159      5.3   939.2    0.00     391    58.8
 330   14:20   72.0    12    3.2   150      5.8   939.1    0.00     368    59.1
 330   14:30   71.4    13    3.8   149      6.3   939.1    0.00     343    59.3
 330   14:40   71.3    13    4.1   163      6.2   939.1    0.00     316    59.6
 330   14:50   70.9    13    5.8   160      8.0   939.1    0.00     290    59.8
 330   15:00   70.5    13    5.2   164      7.2   939.1    0.00     262    60.1
 330   15:10   70.4    13    5.2   163      7.5   939.0    0.00     235    60.3
 330   15:20   70.2    13    5.4   154      7.3   938.9    0.00     208    60.6
 330   15:30   70.3    13    4.5   143      6.7   938.9    0.00     181    60.8
 330   15:40   70.0    13    4.5   143      6.7   938.9    0.00     154    61.0
 330   15:50   69.9    13    4.7   141      6.6   938.7    0.00     122    61.2
 330   16:00   69.6    13    4.1   129      5.6   938.7    0.00      84    61.4
 330   16:10   69.2    13    3.4   137      5.1   938.6    0.00      54    61.5
 330   16:20   68.1    13    2.7   138      3.6   938.5    0.00      16    61.7
 330   16:30   66.0    14    2.1   136      2.9   938.5    0.00       6    61.9
 330   16:40   65.1    14    2.4   115      3.0   938.4    0.00       4    62.0
 330   16:50   64.7    15    2.5    85      4.1   938.3    0.00       0    62.1
 330   17:00   64.5    15    2.9    85      3.8   938.3    0.00       0    62.2
 330   17:10   64.0    15    2.6    80      3.6   938.4    0.00       0    62.3
 330   17:20   62.5    16    0.6    44      2.1   938.4    0.00       0    62.3
 330   17:30   60.2    17    0.6    35      1.5   938.4    0.00       0    62.4
 330   17:40   59.7    17    0.5    24      1.5   938.5    0.00       0    62.4
 330   17:50   58.1    17    0.1    22      1.1   938.4    0.00       0    62.4
 330   18:00   57.4    18    0.5    22      1.3   938.3    0.00       0    62.5
 330   18:10   55.6    17    0.8   357      1.6   938.4    0.00       0    62.5
 330   18:20   54.2    18    1.4    20      2.1   938.4    0.00       0    62.5
 330   18:30   54.2    18    1.7    28      4.3   938.5    0.00       0    62.5
 330   18:40   53.3    18    1.7    26      4.2   938.6    0.00       0    62.5
 330   18:50   52.8    19    2.6    33      4.7   938.6    0.00       0    62.5
 330   19:00   53.0    19    2.7    37      4.7   938.6    0.00       0    62.4
 330   19:10   52.2    19    1.1    28      3.6   938.6    0.00       0    62.4
 330   19:20   51.8    20    1.6    25      4.4   938.6    0.00       0    62.4
 330   19:30   51.3    20    0.7    23      3.4   938.6    0.00       0    62.3
 330   19:40   50.5    20    0.2    16      1.1   938.7    0.00       0    62.3
 330   19:50   49.5    21    0.3    22      3.8   938.8    0.00       0    62.2
 330   20:00   49.9    20    2.1    29      5.3   938.7    0.00       0    62.1
 330   20:10   49.5    21    0.8    18      3.4   938.7    0.00       0    62.1
 330   20:20   48.6    21    0.6    18      3.4   938.8    0.00       0    62.0
 330   20:30   48.3    22    2.1    27      4.5   938.7    0.00       0    61.9
 330   20:40   48.2    22    0.8    17      2.3   938.7    0.00       0    61.9
 330   20:50   47.6    22    0.8     8      2.3   938.7    0.00       0    61.8
 330   21:00   46.8    23    0.4   348      1.2   938.9    0.00       0    61.7
 330   21:10   46.0    24    0.3   348      1.0   938.8    0.00       0    61.7
 330   21:20   46.2    23    0.6    11      1.6   938.8    0.00       0    61.6
 330   21:30   47.2    23    1.1    20      3.4   938.7    0.00       0    61.5
 330   21:40   48.1    23    1.3    20      3.1   938.8    0.00       0    61.4
 330   21:50   48.1    23    2.9    34      5.0   938.7    0.00       0    61.3
 330   22:00   48.6    23    2.8    38      6.4   938.7    0.00       0    61.2
 330   22:10   48.7    23    1.7    28      3.9   938.7    0.00       0    61.2
 330   22:20   47.8    24    0.3     5      1.8   938.7    0.00       0    61.1
 330   22:30   46.2    24    0.4   351      1.5   938.6    0.00       0    61.0
 330   22:40   45.0    25    0.2   343      1.2   938.8    0.00       0    60.9
 330   22:50   44.5    26    0.3   348      0.9   938.7    0.00       0    60.8
 330   23:00   44.4    26    0.5    15      1.2   938.6    0.00       0    60.8
 330   23:10   44.2    26    0.9   338      3.1   938.6    0.00       0    60.7
 330   23:20   43.0    27    1.1   328      2.8   938.6    0.00       0    60.6
 330   23:30   41.9    28    1.1   340      3.0   938.6    0.00       0    60.5
 330   23:40   41.1    29    1.3   336      2.9   938.6    0.00       0    60.4
 330   23:50   40.4    30    1.1   330      1.8   938.6    0.00       0    60.3
 331    0:00   41.0    31    0.8   333      2.2   938.6    0.00       0    60.2
 331    0:10   41.1    31    0.5   334      1.5   938.5    0.00       0    60.1
 331    0:20   41.9    31    1.0   335      2.2   938.4    0.00       0    60.0
 331    0:30   41.8    32    0.1   345      1.8   938.4    0.00       0    60.0
 331    0:40   42.1    32    0.1   351      1.1   938.2    0.00       0    59.9
 331    0:50   43.4    31    0.3   336      1.7   938.1    0.00       0    59.8
 331    1:00   43.6    30    0.4   327      2.2   938.0    0.00       0    59.7
 331    1:10   43.8    30    1.8   318      3.7   938.1    0.00       0    59.6
 331    1:20   45.1    29    1.7   322      3.7   938.2    0.00       0    59.5
 331    1:30   44.6    30    2.5   316      4.2   938.2    0.00       0    59.4
 331    1:40   43.4    31    1.2   321      3.0   938.2    0.00       0    59.3
 331    1:50   42.0    32    0.9   332      1.9   938.2    0.00       0    59.2
 331    2:00   40.7    33    1.2   327      3.0   938.2    0.00       0    59.1
 331    2:10   40.9    33    1.4   322      3.9   938.1    0.00       0    59.1
 331    2:20   42.9    32    0.5   340      1.4   938.0    0.00       0    59.0
 331    2:30   42.4    32    0.5   335      1.4   938.0    0.00       0    58.9
 331    2:40   41.4    33    0.5   330      2.1   937.9    0.00       0    58.8
 331    2:50   41.3    34    1.1   329      3.5   937.7    0.00       0    58.7
 331    3:00   42.2    33    2.2   320      4.2   937.6    0.00       0    58.6
 331    3:10   42.4    33    1.9   320      4.2   937.6    0.00       0    58.5
 331    3:20   44.7    31    1.0   319      3.5   937.6    0.00       0    58.5
 331    3:30   46.2    29    0.7   334      1.9   937.6    0.00       0    58.4
 331    3:40   46.1    30    1.2   329      5.5   937.6    0.00       0    58.3
 331    3:50   43.7    31    1.7   319      4.3   937.6    0.00       0    58.2
 331    4:00   43.0    32    1.0   326      2.3   937.5    0.00       0    58.2
 331    4:10   44.3    31    1.4   324      4.0   937.4    0.00       0    58.1
 331    4:20   43.1    32    1.5   322      4.5   937.5    0.00       0    58.0
 331    4:30   43.4    32    0.6   331      2.0   937.5    0.00       0    57.9
 331    4:40   43.8    31    0.4   330      1.8   937.5    0.00       0    57.9
 331    4:50   43.8    31    0.1   346      1.2   937.6    0.00       0    57.8
 331    5:00   44.4    30    0.2     0      1.3   937.6    0.00       0    57.7
 331    5:10   45.6    29    1.0    24      3.3   937.5    0.00       0    57.7
 331    5:20   45.4    29    0.7    30      2.6   937.5    0.00       0    57.6
 331    5:30   45.5    30    1.6    50      3.5   937.5    0.00       0    57.5
 331    5:40   45.2    30    0.9    35      3.0   937.6    0.00       0    57.5
 331    5:50   44.4    30    0.7    59      2.0   937.6    0.00       0    57.4
 331    6:00   43.9    31    0.4    54      1.2   937.6    0.00       0    57.3
 331    6:10   43.1    31    0.0    49      0.9   937.7    0.00       0    57.3
 331    6:20   41.7    32    0.0    39      1.1   937.8    0.00       0    57.2
 331    6:30   41.1    32    0.0    39      0.1   937.7    0.00       5    57.2
 331    6:40   41.1    32    0.0    39      0.3   937.8    0.00       6    57.1
 331    6:50   41.1    32    0.0     0      0.0   937.8    0.00      18    57.0

Return to Amargosa Valley, Nevada graphs page.


Western Regional Climate Center,wrcc@dri.edu